sensor_id;sensor_type;location;lat;lon;timestamp;temperature;humidity
20349;DHT22;10332;50.208;18.988;2023-04-03T00:01:22;4.30;93.60
20349;DHT22;10332;50.208;18.988;2023-04-03T00:03:49;4.40;93.40
20349;DHT22;10332;50.208;18.988;2023-04-03T00:06:18;4.40;93.30
20349;DHT22;10332;50.208;18.988;2023-04-03T00:08:46;4.40;93.50
20349;DHT22;10332;50.208;18.988;2023-04-03T00:11:14;4.50;92.40
20349;DHT22;10332;50.208;18.988;2023-04-03T00:13:43;4.50;91.70
20349;DHT22;10332;50.208;18.988;2023-04-03T00:16:11;4.50;91.20
20349;DHT22;10332;50.208;18.988;2023-04-03T00:18:39;4.50;90.90
20349;DHT22;10332;50.208;18.988;2023-04-03T00:21:08;4.50;90.60
20349;DHT22;10332;50.208;18.988;2023-04-03T00:23:37;4.40;90.00
20349;DHT22;10332;50.208;18.988;2023-04-03T00:26:04;4.40;90.10
20349;DHT22;10332;50.208;18.988;2023-04-03T00:28:32;4.40;90.10
20349;DHT22;10332;50.208;18.988;2023-04-03T00:30:59;4.40;90.00
20349;DHT22;10332;50.208;18.988;2023-04-03T00:33:27;4.40;89.40
20349;DHT22;10332;50.208;18.988;2023-04-03T00:35:55;4.40;89.60
20349;DHT22;10332;50.208;18.988;2023-04-03T00:38:22;4.40;90.30
20349;DHT22;10332;50.208;18.988;2023-04-03T00:40:50;4.30;90.20
20349;DHT22;10332;50.208;18.988;2023-04-03T00:43:23;4.30;90.90
20349;DHT22;10332;50.208;18.988;2023-04-03T00:45:59;4.40;91.20
20349;DHT22;10332;50.208;18.988;2023-04-03T00:48:29;4.40;91.40
20349;DHT22;10332;50.208;18.988;2023-04-03T00:51:00;4.40;91.00
20349;DHT22;10332;50.208;18.988;2023-04-03T00:53:37;4.40;90.00
20349;DHT22;10332;50.208;18.988;2023-04-03T00:56:11;4.40;89.10
20349;DHT22;10332;50.208;18.988;2023-04-03T00:58:55;4.30;89.80
20349;DHT22;10332;50.208;18.988;2023-04-03T01:01:29;4.30;90.90
20349;DHT22;10332;50.208;18.988;2023-04-03T01:04:01;4.30;91.50
20349;DHT22;10332;50.208;18.988;2023-04-03T01:06:35;4.40;91.80
20349;DHT22;10332;50.208;18.988;2023-04-03T01:09:05;4.50;92.00
20349;DHT22;10332;50.208;18.988;2023-04-03T01:11:33;4.50;91.90
20349;DHT22;10332;50.208;18.988;2023-04-03T01:14:00;4.50;91.80
20349;DHT22;10332;50.208;18.988;2023-04-03T01:16:29;4.50;92.10
20349;DHT22;10332;50.208;18.988;2023-04-03T01:19:00;4.50;92.20
20349;DHT22;10332;50.208;18.988;2023-04-03T01:24:35;4.50;91.50
20349;DHT22;10332;50.208;18.988;2023-04-03T01:27:07;4.50;91.20
20349;DHT22;10332;50.208;18.988;2023-04-03T01:29:37;4.50;91.00
20349;DHT22;10332;50.208;18.988;2023-04-03T01:32:05;4.50;90.90
20349;DHT22;10332;50.208;18.988;2023-04-03T01:34:33;4.50;90.80
20349;DHT22;10332;50.208;18.988;2023-04-03T01:37:01;4.50;90.70
20349;DHT22;10332;50.208;18.988;2023-04-03T01:39:28;4.50;90.20
20349;DHT22;10332;50.208;18.988;2023-04-03T01:41:56;4.50;90.40
20349;DHT22;10332;50.208;18.988;2023-04-03T01:44:23;4.50;90.00
20349;DHT22;10332;50.208;18.988;2023-04-03T01:46:51;4.50;90.10
20349;DHT22;10332;50.208;18.988;2023-04-03T01:49:18;4.40;89.50
20349;DHT22;10332;50.208;18.988;2023-04-03T01:51:46;4.40;89.60
20349;DHT22;10332;50.208;18.988;2023-04-03T01:54:14;4.40;90.10
20349;DHT22;10332;50.208;18.988;2023-04-03T01:56:41;4.40;90.00
20349;DHT22;10332;50.208;18.988;2023-04-03T01:59:09;4.40;89.60
20349;DHT22;10332;50.208;18.988;2023-04-03T02:01:36;4.40;89.30
20349;DHT22;10332;50.208;18.988;2023-04-03T02:04:04;4.40;89.20
20349;DHT22;10332;50.208;18.988;2023-04-03T02:06:31;4.40;88.40
20349;DHT22;10332;50.208;18.988;2023-04-03T02:08:59;4.40;88.40
20349;DHT22;10332;50.208;18.988;2023-04-03T02:11:26;4.30;87.80
20349;DHT22;10332;50.208;18.988;2023-04-03T02:13:54;4.30;87.00
20349;DHT22;10332;50.208;18.988;2023-04-03T02:16:22;4.30;86.90
20349;DHT22;10332;50.208;18.988;2023-04-03T02:18:49;4.20;86.90
20349;DHT22;10332;50.208;18.988;2023-04-03T02:21:17;4.20;85.30
20349;DHT22;10332;50.208;18.988;2023-04-03T02:23:45;4.20;85.70
20349;DHT22;10332;50.208;18.988;2023-04-03T02:26:14;4.10;86.00
20349;DHT22;10332;50.208;18.988;2023-04-03T02:28:43;4.10;85.20
20349;DHT22;10332;50.208;18.988;2023-04-03T02:31:10;4.00;85.60
20349;DHT22;10332;50.208;18.988;2023-04-03T02:33:38;4.00;84.20
20349;DHT22;10332;50.208;18.988;2023-04-03T02:36:06;4.00;84.70
20349;DHT22;10332;50.208;18.988;2023-04-03T02:38:35;3.90;85.20
20349;DHT22;10332;50.208;18.988;2023-04-03T02:41:04;3.90;85.70
20349;DHT22;10332;50.208;18.988;2023-04-03T02:43:34;3.90;83.80
20349;DHT22;10332;50.208;18.988;2023-04-03T02:46:01;3.80;84.60
20349;DHT22;10332;50.208;18.988;2023-04-03T02:48:29;3.80;87.10
20349;DHT22;10332;50.208;18.988;2023-04-03T02:50:56;3.80;88.30
20349;DHT22;10332;50.208;18.988;2023-04-03T02:53:24;3.80;88.10
20349;DHT22;10332;50.208;18.988;2023-04-03T02:55:52;3.90;88.70
20349;DHT22;10332;50.208;18.988;2023-04-03T02:58:19;3.90;88.80
20349;DHT22;10332;50.208;18.988;2023-04-03T03:00:47;4.00;88.90
20349;DHT22;10332;50.208;18.988;2023-04-03T03:03:14;4.00;88.50
20349;DHT22;10332;50.208;18.988;2023-04-03T03:05:42;4.00;89.30
20349;DHT22;10332;50.208;18.988;2023-04-03T03:08:09;4.10;88.30
20349;DHT22;10332;50.208;18.988;2023-04-03T03:10:37;4.10;87.80
20349;DHT22;10332;50.208;18.988;2023-04-03T03:13:05;4.10;86.30
20349;DHT22;10332;50.208;18.988;2023-04-03T03:15:32;4.10;84.70
20349;DHT22;10332;50.208;18.988;2023-04-03T03:18:00;4.10;83.60
20349;DHT22;10332;50.208;18.988;2023-04-03T03:20:27;4.10;82.70
20349;DHT22;10332;50.208;18.988;2023-04-03T03:22:55;4.00;81.00
20349;DHT22;10332;50.208;18.988;2023-04-03T03:25:22;4.00;80.10
20349;DHT22;10332;50.208;18.988;2023-04-03T03:27:50;4.00;80.50
20349;DHT22;10332;50.208;18.988;2023-04-03T03:30:17;4.00;80.00
20349;DHT22;10332;50.208;18.988;2023-04-03T03:32:45;4.00;79.00
20349;DHT22;10332;50.208;18.988;2023-04-03T03:35:13;3.90;79.00
20349;DHT22;10332;50.208;18.988;2023-04-03T03:37:40;4.00;78.60
20349;DHT22;10332;50.208;18.988;2023-04-03T03:40:08;3.90;76.40
20349;DHT22;10332;50.208;18.988;2023-04-03T03:42:37;3.80;74.60
20349;DHT22;10332;50.208;18.988;2023-04-03T03:45:05;3.80;74.10
20349;DHT22;10332;50.208;18.988;2023-04-03T03:47:33;3.70;76.30
20349;DHT22;10332;50.208;18.988;2023-04-03T03:50:01;3.70;77.00
20349;DHT22;10332;50.208;18.988;2023-04-03T03:52:29;3.70;75.20
20349;DHT22;10332;50.208;18.988;2023-04-03T03:54:57;3.70;75.10
20349;DHT22;10332;50.208;18.988;2023-04-03T03:57:24;3.60;72.50
20349;DHT22;10332;50.208;18.988;2023-04-03T03:59:54;3.50;73.60
20349;DHT22;10332;50.208;18.988;2023-04-03T04:02:22;3.50;74.70
20349;DHT22;10332;50.208;18.988;2023-04-03T04:04:50;3.50;75.30
20349;DHT22;10332;50.208;18.988;2023-04-03T04:07:17;3.40;75.70
20349;DHT22;10332;50.208;18.988;2023-04-03T04:09:45;3.40;76.00
20349;DHT22;10332;50.208;18.988;2023-04-03T04:12:12;3.40;75.30
20349;DHT22;10332;50.208;18.988;2023-04-03T04:14:40;3.40;76.10
20349;DHT22;10332;50.208;18.988;2023-04-03T04:17:07;3.40;75.70
20349;DHT22;10332;50.208;18.988;2023-04-03T04:19:34;3.50;76.30
20349;DHT22;10332;50.208;18.988;2023-04-03T04:22:02;3.50;76.10
20349;DHT22;10332;50.208;18.988;2023-04-03T04:24:29;3.50;75.90
20349;DHT22;10332;50.208;18.988;2023-04-03T04:26:57;3.50;74.80
20349;DHT22;10332;50.208;18.988;2023-04-03T04:29:25;3.50;74.70
20349;DHT22;10332;50.208;18.988;2023-04-03T04:31:53;3.40;75.20
20349;DHT22;10332;50.208;18.988;2023-04-03T04:34:20;3.40;75.20
20349;DHT22;10332;50.208;18.988;2023-04-03T04:36:48;3.40;74.40
20349;DHT22;10332;50.208;18.988;2023-04-03T04:39:15;3.40;74.90
20349;DHT22;10332;50.208;18.988;2023-04-03T04:41:42;3.40;74.80
20349;DHT22;10332;50.208;18.988;2023-04-03T04:44:10;3.40;72.90
20349;DHT22;10332;50.208;18.988;2023-04-03T04:46:38;3.40;73.90
20349;DHT22;10332;50.208;18.988;2023-04-03T04:49:05;3.40;74.30
20349;DHT22;10332;50.208;18.988;2023-04-03T04:51:33;3.40;74.30
20349;DHT22;10332;50.208;18.988;2023-04-03T04:54:10;3.40;74.60
20349;DHT22;10332;50.208;18.988;2023-04-03T04:56:38;3.40;73.90
20349;DHT22;10332;50.208;18.988;2023-04-03T04:59:05;3.40;73.60
20349;DHT22;10332;50.208;18.988;2023-04-03T05:01:33;3.40;73.00
20349;DHT22;10332;50.208;18.988;2023-04-03T05:04:00;3.40;71.80
20349;DHT22;10332;50.208;18.988;2023-04-03T05:06:28;3.40;70.70
20349;DHT22;10332;50.208;18.988;2023-04-03T05:08:57;3.40;70.50
20349;DHT22;10332;50.208;18.988;2023-04-03T05:11:25;3.40;70.20
20349;DHT22;10332;50.208;18.988;2023-04-03T05:13:52;3.30;70.30
20349;DHT22;10332;50.208;18.988;2023-04-03T05:16:20;3.30;68.80
20349;DHT22;10332;50.208;18.988;2023-04-03T05:18:47;3.30;69.30
20349;DHT22;10332;50.208;18.988;2023-04-03T05:21:15;3.30;69.40
20349;DHT22;10332;50.208;18.988;2023-04-03T05:23:42;3.20;68.70
20349;DHT22;10332;50.208;18.988;2023-04-03T05:26:10;3.20;69.80
20349;DHT22;10332;50.208;18.988;2023-04-03T05:28:37;3.20;71.00
20349;DHT22;10332;50.208;18.988;2023-04-03T05:31:05;3.30;70.60
20349;DHT22;10332;50.208;18.988;2023-04-03T05:33:32;3.30;69.80
20349;DHT22;10332;50.208;18.988;2023-04-03T05:36:04;3.40;68.90
20349;DHT22;10332;50.208;18.988;2023-04-03T05:38:32;3.40;68.20
20349;DHT22;10332;50.208;18.988;2023-04-03T05:41:01;3.40;66.90
20349;DHT22;10332;50.208;18.988;2023-04-03T05:43:28;3.40;66.90
20349;DHT22;10332;50.208;18.988;2023-04-03T05:45:55;3.40;65.90
20349;DHT22;10332;50.208;18.988;2023-04-03T05:48:23;3.30;64.80
20349;DHT22;10332;50.208;18.988;2023-04-03T05:50:51;3.30;65.40
20349;DHT22;10332;50.208;18.988;2023-04-03T05:53:27;3.30;65.30
20349;DHT22;10332;50.208;18.988;2023-04-03T05:55:57;3.30;66.10
20349;DHT22;10332;50.208;18.988;2023-04-03T05:58:24;3.30;65.80
20349;DHT22;10332;50.208;18.988;2023-04-03T06:00:52;3.30;66.40
20349;DHT22;10332;50.208;18.988;2023-04-03T06:03:19;3.30;64.20
20349;DHT22;10332;50.208;18.988;2023-04-03T06:05:47;3.30;64.50
20349;DHT22;10332;50.208;18.988;2023-04-03T06:08:15;3.30;64.90
20349;DHT22;10332;50.208;18.988;2023-04-03T06:10:42;3.30;63.50
20349;DHT22;10332;50.208;18.988;2023-04-03T06:13:10;3.20;64.50
20349;DHT22;10332;50.208;18.988;2023-04-03T06:15:38;3.30;63.10
20349;DHT22;10332;50.208;18.988;2023-04-03T06:18:06;3.20;62.30
20349;DHT22;10332;50.208;18.988;2023-04-03T06:20:34;3.30;63.20
20349;DHT22;10332;50.208;18.988;2023-04-03T06:23:02;3.30;63.50
20349;DHT22;10332;50.208;18.988;2023-04-03T06:25:31;3.40;64.00
20349;DHT22;10332;50.208;18.988;2023-04-03T06:27:58;3.40;61.00
20349;DHT22;10332;50.208;18.988;2023-04-03T06:30:26;3.40;59.00
20349;DHT22;10332;50.208;18.988;2023-04-03T06:32:54;3.50;59.40
20349;DHT22;10332;50.208;18.988;2023-04-03T06:35:22;3.50;59.80
20349;DHT22;10332;50.208;18.988;2023-04-03T06:37:50;3.50;57.50
20349;DHT22;10332;50.208;18.988;2023-04-03T06:40:21;3.60;57.80
20349;DHT22;10332;50.208;18.988;2023-04-03T06:42:50;3.70;58.90
20349;DHT22;10332;50.208;18.988;2023-04-03T06:45:18;3.80;57.00
20349;DHT22;10332;50.208;18.988;2023-04-03T06:47:46;4.00;54.00
20349;DHT22;10332;50.208;18.988;2023-04-03T06:50:13;4.00;52.90
20349;DHT22;10332;50.208;18.988;2023-04-03T06:52:42;4.10;52.40
20349;DHT22;10332;50.208;18.988;2023-04-03T06:55:09;4.20;51.80
20349;DHT22;10332;50.208;18.988;2023-04-03T06:57:37;4.30;53.70
20349;DHT22;10332;50.208;18.988;2023-04-03T07:00:06;4.40;54.50
20349;DHT22;10332;50.208;18.988;2023-04-03T07:02:34;4.40;53.60
20349;DHT22;10332;50.208;18.988;2023-04-03T07:05:02;4.50;54.60
20349;DHT22;10332;50.208;18.988;2023-04-03T07:07:29;4.50;51.50
20349;DHT22;10332;50.208;18.988;2023-04-03T07:09:57;4.40;52.00
20349;DHT22;10332;50.208;18.988;2023-04-03T07:12:25;4.50;53.10
20349;DHT22;10332;50.208;18.988;2023-04-03T07:14:53;4.60;52.20
20349;DHT22;10332;50.208;18.988;2023-04-03T07:17:20;4.80;52.70
20349;DHT22;10332;50.208;18.988;2023-04-03T07:19:48;5.20;49.50
20349;DHT22;10332;50.208;18.988;2023-04-03T07:25:03;6.60;37.00
20349;DHT22;10332;50.208;18.988;2023-04-03T07:27:31;7.50;31.10
20349;DHT22;10332;50.208;18.988;2023-04-03T07:29:59;7.50;27.10
20349;DHT22;10332;50.208;18.988;2023-04-03T07:32:26;7.50;20.00
20349;DHT22;10332;50.208;18.988;2023-04-03T07:34:54;7.40;18.10
20349;DHT22;10332;50.208;18.988;2023-04-03T07:37:21;7.30;23.30
20349;DHT22;10332;50.208;18.988;2023-04-03T07:39:49;7.20;17.90
20349;DHT22;10332;50.208;18.988;2023-04-03T07:42:17;7.00;12.00
20349;DHT22;10332;50.208;18.988;2023-04-03T07:44:45;6.80;13.30
20349;DHT22;10332;50.208;18.988;2023-04-03T07:47:12;6.60;12.10
20349;DHT22;10332;50.208;18.988;2023-04-03T07:49:43;6.40;12.40
20349;DHT22;10332;50.208;18.988;2023-04-03T07:52:11;6.30;11.10
20349;DHT22;10332;50.208;18.988;2023-04-03T07:54:39;6.30;12.40
20349;DHT22;10332;50.208;18.988;2023-04-03T07:57:06;6.30;17.00
20349;DHT22;10332;50.208;18.988;2023-04-03T07:59:34;6.60;20.00
20349;DHT22;10332;50.208;18.988;2023-04-03T08:02:01;7.00;15.90
20349;DHT22;10332;50.208;18.988;2023-04-03T08:04:32;7.30;10.70
20349;DHT22;10332;50.208;18.988;2023-04-03T08:06:59;7.50;11.30
20349;DHT22;10332;50.208;18.988;2023-04-03T08:09:27;7.60;6.80
20349;DHT22;10332;50.208;18.988;2023-04-03T08:11:54;7.60;1.10
20349;DHT22;10332;50.208;18.988;2023-04-03T08:14:22;7.80;1.00
20349;DHT22;10332;50.208;18.988;2023-04-03T08:16:50;7.90;1.00
20349;DHT22;10332;50.208;18.988;2023-04-03T08:19:17;8.10;1.00
20349;DHT22;10332;50.208;18.988;2023-04-03T08:21:53;8.30;1.00
20349;DHT22;10332;50.208;18.988;2023-04-03T08:24:21;8.60;1.00
20349;DHT22;10332;50.208;18.988;2023-04-03T08:26:49;8.80;1.00
20349;DHT22;10332;50.208;18.988;2023-04-03T08:29:16;8.70;1.00
20349;DHT22;10332;50.208;18.988;2023-04-03T08:31:44;8.60;1.00
20349;DHT22;10332;50.208;18.988;2023-04-03T08:34:13;8.40;1.00
20349;DHT22;10332;50.208;18.988;2023-04-03T08:36:42;8.30;1.00
20349;DHT22;10332;50.208;18.988;2023-04-03T08:39:10;8.40;1.00
20349;DHT22;10332;50.208;18.988;2023-04-03T08:41:42;8.70;1.00
20349;DHT22;10332;50.208;18.988;2023-04-03T08:50:35;9.50;1.00
20349;DHT22;10332;50.208;18.988;2023-04-03T08:53:14;9.60;1.00
20349;DHT22;10332;50.208;18.988;2023-04-03T08:55:46;10.50;1.00
20349;DHT22;10332;50.208;18.988;2023-04-03T08:58:21;11.40;1.00
20349;DHT22;10332;50.208;18.988;2023-04-03T09:01:05;12.20;1.00
20349;DHT22;10332;50.208;18.988;2023-04-03T09:04:13;13.60;1.00
20349;DHT22;10332;50.208;18.988;2023-04-03T09:06:47;16.40;1.00
20349;DHT22;10332;50.208;18.988;2023-04-03T09:09:35;17.30;1.00
20349;DHT22;10332;50.208;18.988;2023-04-03T09:12:19;17.20;1.00
20349;DHT22;10332;50.208;18.988;2023-04-03T09:23:39;21.60;1.00
20349;DHT22;10332;50.208;18.988;2023-04-03T09:29:07;26.40;1.00
20349;DHT22;10332;50.208;18.988;2023-04-03T09:31:42;25.10;1.00
20349;DHT22;10332;50.208;18.988;2023-04-03T09:34:32;24.40;1.00
20349;DHT22;10332;50.208;18.988;2023-04-03T09:37:04;22.80;1.00
20349;DHT22;10332;50.208;18.988;2023-04-03T09:39:53;20.70;1.00
20349;DHT22;10332;50.208;18.988;2023-04-03T09:42:23;18.90;1.00
20349;DHT22;10332;50.208;18.988;2023-04-03T09:44:57;17.70;1.00
20349;DHT22;10332;50.208;18.988;2023-04-03T09:47:28;16.20;1.00
20349;DHT22;10332;50.208;18.988;2023-04-03T09:52:46;13.30;1.00
20349;DHT22;10332;50.208;18.988;2023-04-03T09:55:17;12.30;1.00
20349;DHT22;10332;50.208;18.988;2023-04-03T10:00:34;15.30;1.00
20349;DHT22;10332;50.208;18.988;2023-04-03T10:03:05;20.50;1.00
20349;DHT22;10332;50.208;18.988;2023-04-03T10:05:51;23.70;1.00
20349;DHT22;10332;50.208;18.988;2023-04-03T10:08:25;23.50;1.00
20349;DHT22;10332;50.208;18.988;2023-04-03T10:11:13;22.20;1.00
20349;DHT22;10332;50.208;18.988;2023-04-03T10:13:58;21.00;1.00
20349;DHT22;10332;50.208;18.988;2023-04-03T10:16:41;22.40;1.00
20349;DHT22;10332;50.208;18.988;2023-04-03T10:21:58;25.10;1.00
20349;DHT22;10332;50.208;18.988;2023-04-03T10:25:03;25.70;1.00
20349;DHT22;10332;50.208;18.988;2023-04-03T10:27:47;23.50;1.00
20349;DHT22;10332;50.208;18.988;2023-04-03T10:39:59;20.40;1.00
20349;DHT22;10332;50.208;18.988;2023-04-03T10:51:19;32.90;1.00
20349;DHT22;10332;50.208;18.988;2023-04-03T10:54:24;35.40;1.00
20349;DHT22;10332;50.208;18.988;2023-04-03T10:57:06;39.00;1.00
20349;DHT22;10332;50.208;18.988;2023-04-03T10:59:46;40.10;1.00
20349;DHT22;10332;50.208;18.988;2023-04-03T11:02:32;36.80;1.00
20349;DHT22;10332;50.208;18.988;2023-04-03T11:05:07;33.80;1.00
20349;DHT22;10332;50.208;18.988;2023-04-03T11:07:45;31.90;1.00
20349;DHT22;10332;50.208;18.988;2023-04-03T11:15:40;32.20;1.00
20349;DHT22;10332;50.208;18.988;2023-04-03T11:18:17;33.20;1.00
20349;DHT22;10332;50.208;18.988;2023-04-03T11:21:02;33.90;1.00
20349;DHT22;10332;50.208;18.988;2023-04-03T11:23:39;30.10;1.00
20349;DHT22;10332;50.208;18.988;2023-04-03T11:26:18;27.00;1.00
20349;DHT22;10332;50.208;18.988;2023-04-03T11:28:55;27.50;1.00
20349;DHT22;10332;50.208;18.988;2023-04-03T11:31:59;32.10;1.00
20349;DHT22;10332;50.208;18.988;2023-04-03T11:34:56;37.20;1.00
20349;DHT22;10332;50.208;18.988;2023-04-03T11:37:38;36.10;1.00
20349;DHT22;10332;50.208;18.988;2023-04-03T11:40:21;35.40;1.00
20349;DHT22;10332;50.208;18.988;2023-04-03T11:46:04;39.10;1.00
20349;DHT22;10332;50.208;18.988;2023-04-03T11:53:40;46.40;1.00
20349;DHT22;10332;50.208;18.988;2023-04-03T12:04:22;48.00;1.00
20349;DHT22;10332;50.208;18.988;2023-04-03T12:07:01;42.90;1.00
20349;DHT22;10332;50.208;18.988;2023-04-03T12:12:31;39.10;1.00
20349;DHT22;10332;50.208;18.988;2023-04-03T12:18:43;43.10;1.00
20349;DHT22;10332;50.208;18.988;2023-04-03T12:21:23;39.90;1.00
20349;DHT22;10332;50.208;18.988;2023-04-03T12:27:01;30.40;1.00
20349;DHT22;10332;50.208;18.988;2023-04-03T12:41:21;43.70;1.00
20349;DHT22;10332;50.208;18.988;2023-04-03T12:44:55;41.80;1.00
20349;DHT22;10332;50.208;18.988;2023-04-03T12:47:29;41.40;1.00
20349;DHT22;10332;50.208;18.988;2023-04-03T12:50:05;36.70;1.00
20349;DHT22;10332;50.208;18.988;2023-04-03T12:53:11;32.30;1.00
20349;DHT22;10332;50.208;18.988;2023-04-03T12:55:42;29.00;1.00
20349;DHT22;10332;50.208;18.988;2023-04-03T12:58:24;31.60;1.00
20349;DHT22;10332;50.208;18.988;2023-04-03T13:01:11;35.30;1.00
20349;DHT22;10332;50.208;18.988;2023-04-03T13:03:49;36.60;1.00
20349;DHT22;10332;50.208;18.988;2023-04-03T13:06:24;33.30;1.00
20349;DHT22;10332;50.208;18.988;2023-04-03T13:08:57;30.80;1.00
20349;DHT22;10332;50.208;18.988;2023-04-03T13:11:35;32.60;1.00
20349;DHT22;10332;50.208;18.988;2023-04-03T13:14:23;35.30;1.00
20349;DHT22;10332;50.208;18.988;2023-04-03T13:16:55;37.90;1.00
20349;DHT22;10332;50.208;18.988;2023-04-03T13:19:26;39.70;1.00
20349;DHT22;10332;50.208;18.988;2023-04-03T13:22:22;40.00;1.00
20349;DHT22;10332;50.208;18.988;2023-04-03T13:25:09;38.50;1.00
20349;DHT22;10332;50.208;18.988;2023-04-03T13:27:40;39.50;1.00
20349;DHT22;10332;50.208;18.988;2023-04-03T13:30:36;39.20;1.00
20349;DHT22;10332;50.208;18.988;2023-04-03T13:33:23;39.80;1.00
20349;DHT22;10332;50.208;18.988;2023-04-03T13:36:02;41.00;1.00
20349;DHT22;10332;50.208;18.988;2023-04-03T13:38:32;39.90;1.00
20349;DHT22;10332;50.208;18.988;2023-04-03T13:41:21;36.40;1.00
20349;DHT22;10332;50.208;18.988;2023-04-03T13:46:55;28.40;1.00
20349;DHT22;10332;50.208;18.988;2023-04-03T13:49:38;30.00;1.00
20349;DHT22;10332;50.208;18.988;2023-04-03T13:52:27;32.50;1.00
20349;DHT22;10332;50.208;18.988;2023-04-03T13:55:18;31.20;1.00
20349;DHT22;10332;50.208;18.988;2023-04-03T14:00:48;24.40;1.00
20349;DHT22;10332;50.208;18.988;2023-04-03T14:03:30;21.50;1.00
20349;DHT22;10332;50.208;18.988;2023-04-03T14:06:06;19.20;1.00
20349;DHT22;10332;50.208;18.988;2023-04-03T14:08:37;18.00;1.00
20349;DHT22;10332;50.208;18.988;2023-04-03T14:11:14;17.60;1.00
20349;DHT22;10332;50.208;18.988;2023-04-03T14:13:44;16.60;1.00
20349;DHT22;10332;50.208;18.988;2023-04-03T14:16:22;15.70;1.00
20349;DHT22;10332;50.208;18.988;2023-04-03T14:18:52;14.80;1.00
20349;DHT22;10332;50.208;18.988;2023-04-03T14:21:21;14.20;1.00
20349;DHT22;10332;50.208;18.988;2023-04-03T14:23:49;13.80;1.00
20349;DHT22;10332;50.208;18.988;2023-04-03T14:26:21;13.60;1.00
20349;DHT22;10332;50.208;18.988;2023-04-03T14:28:52;16.10;1.00
20349;DHT22;10332;50.208;18.988;2023-04-03T14:31:23;16.80;1.00
20349;DHT22;10332;50.208;18.988;2023-04-03T14:33:51;15.60;1.00
20349;DHT22;10332;50.208;18.988;2023-04-03T14:36:21;14.30;1.00
20349;DHT22;10332;50.208;18.988;2023-04-03T14:38:55;13.20;1.00
20349;DHT22;10332;50.208;18.988;2023-04-03T14:41:25;12.40;1.00
20349;DHT22;10332;50.208;18.988;2023-04-03T14:43:54;11.80;1.00
20349;DHT22;10332;50.208;18.988;2023-04-03T14:46:26;12.20;1.00
20349;DHT22;10332;50.208;18.988;2023-04-03T14:49:24;12.60;1.00
20349;DHT22;10332;50.208;18.988;2023-04-03T14:51:56;12.40;1.00
20349;DHT22;10332;50.208;18.988;2023-04-03T14:54:25;12.10;1.00
20349;DHT22;10332;50.208;18.988;2023-04-03T14:56:56;11.70;1.00
20349;DHT22;10332;50.208;18.988;2023-04-03T14:59:28;11.30;1.00
20349;DHT22;10332;50.208;18.988;2023-04-03T15:01:58;11.10;1.00
20349;DHT22;10332;50.208;18.988;2023-04-03T15:04:26;11.10;1.00
20349;DHT22;10332;50.208;18.988;2023-04-03T15:06:55;11.20;1.00
20349;DHT22;10332;50.208;18.988;2023-04-03T15:09:25;11.10;1.00
20349;DHT22;10332;50.208;18.988;2023-04-03T15:11:55;11.10;1.00
20349;DHT22;10332;50.208;18.988;2023-04-03T15:14:23;11.00;1.00
20349;DHT22;10332;50.208;18.988;2023-04-03T15:17:19;10.80;1.00
20349;DHT22;10332;50.208;18.988;2023-04-03T15:19:49;10.50;1.00
20349;DHT22;10332;50.208;18.988;2023-04-03T15:22:19;10.10;1.00
20349;DHT22;10332;50.208;18.988;2023-04-03T15:24:47;9.80;1.00
20349;DHT22;10332;50.208;18.988;2023-04-03T15:27:14;9.70;1.00
20349;DHT22;10332;50.208;18.988;2023-04-03T15:29:43;9.60;1.00
20349;DHT22;10332;50.208;18.988;2023-04-03T15:32:12;9.70;1.00
20349;DHT22;10332;50.208;18.988;2023-04-03T15:34:40;9.80;1.00
20349;DHT22;10332;50.208;18.988;2023-04-03T15:37:08;9.70;1.00
20349;DHT22;10332;50.208;18.988;2023-04-03T15:39:35;9.50;1.00
20349;DHT22;10332;50.208;18.988;2023-04-03T15:42:03;9.30;1.00
20349;DHT22;10332;50.208;18.988;2023-04-03T15:44:34;9.20;1.00
20349;DHT22;10332;50.208;18.988;2023-04-03T15:47:02;9.00;1.00
20349;DHT22;10332;50.208;18.988;2023-04-03T15:49:31;8.90;1.00
20349;DHT22;10332;50.208;18.988;2023-04-03T15:52:00;8.80;1.00
20349;DHT22;10332;50.208;18.988;2023-04-03T15:54:28;8.70;1.00
20349;DHT22;10332;50.208;18.988;2023-04-03T15:56:56;8.60;1.00
20349;DHT22;10332;50.208;18.988;2023-04-03T15:59:24;8.50;1.00
20349;DHT22;10332;50.208;18.988;2023-04-03T16:01:52;8.40;1.00
20349;DHT22;10332;50.208;18.988;2023-04-03T16:04:20;8.30;1.00
20349;DHT22;10332;50.208;18.988;2023-04-03T16:06:49;8.20;1.00
20349;DHT22;10332;50.208;18.988;2023-04-03T16:09:17;8.10;1.00
20349;DHT22;10332;50.208;18.988;2023-04-03T16:11:45;8.00;1.00
20349;DHT22;10332;50.208;18.988;2023-04-03T16:14:13;7.80;1.00
20349;DHT22;10332;50.208;18.988;2023-04-03T16:16:40;7.60;1.00
20349;DHT22;10332;50.208;18.988;2023-04-03T16:19:08;7.40;1.00
20349;DHT22;10332;50.208;18.988;2023-04-03T16:21:36;7.20;1.00
20349;DHT22;10332;50.208;18.988;2023-04-03T16:24:04;7.10;1.00
20349;DHT22;10332;50.208;18.988;2023-04-03T16:26:32;7.00;1.00
20349;DHT22;10332;50.208;18.988;2023-04-03T16:29:00;6.90;1.00
20349;DHT22;10332;50.208;18.988;2023-04-03T16:31:28;6.80;1.00
20349;DHT22;10332;50.208;18.988;2023-04-03T16:33:56;6.70;1.00
20349;DHT22;10332;50.208;18.988;2023-04-03T16:36:24;6.70;1.00
20349;DHT22;10332;50.208;18.988;2023-04-03T16:38:53;6.70;1.00
20349;DHT22;10332;50.208;18.988;2023-04-03T16:41:20;6.60;1.00
20349;DHT22;10332;50.208;18.988;2023-04-03T16:43:48;6.50;1.00
20349;DHT22;10332;50.208;18.988;2023-04-03T16:46:16;6.40;1.00
20349;DHT22;10332;50.208;18.988;2023-04-03T16:48:44;6.30;1.00
20349;DHT22;10332;50.208;18.988;2023-04-03T16:51:12;6.20;1.00
20349;DHT22;10332;50.208;18.988;2023-04-03T16:53:40;6.10;1.00
20349;DHT22;10332;50.208;18.988;2023-04-03T16:56:08;6.00;1.00
20349;DHT22;10332;50.208;18.988;2023-04-03T16:58:36;6.00;1.00
20349;DHT22;10332;50.208;18.988;2023-04-03T17:01:14;6.00;1.00
20349;DHT22;10332;50.208;18.988;2023-04-03T17:03:44;6.00;1.00
20349;DHT22;10332;50.208;18.988;2023-04-03T17:06:15;5.90;1.00
20349;DHT22;10332;50.208;18.988;2023-04-03T17:08:46;5.90;1.00
20349;DHT22;10332;50.208;18.988;2023-04-03T17:11:15;5.80;1.00
20349;DHT22;10332;50.208;18.988;2023-04-03T17:13:43;5.70;1.00
20349;DHT22;10332;50.208;18.988;2023-04-03T17:16:14;5.60;1.00
20349;DHT22;10332;50.208;18.988;2023-04-03T17:18:43;5.60;1.00
20349;DHT22;10332;50.208;18.988;2023-04-03T17:21:11;5.50;1.00
20349;DHT22;10332;50.208;18.988;2023-04-03T17:23:44;5.50;1.00
20349;DHT22;10332;50.208;18.988;2023-04-03T17:26:14;5.50;1.00
20349;DHT22;10332;50.208;18.988;2023-04-03T17:28:42;5.50;1.00
20349;DHT22;10332;50.208;18.988;2023-04-03T17:31:12;5.50;1.00
20349;DHT22;10332;50.208;18.988;2023-04-03T17:33:40;5.30;1.00
20349;DHT22;10332;50.208;18.988;2023-04-03T17:36:07;5.30;1.00
20349;DHT22;10332;50.208;18.988;2023-04-03T17:38:35;5.30;1.00